Welcome to Northern Hawkes Bay. New Zealand.
PWS Header
      nz Flag



Hit Counter


W3C Valid W3C Valid logo


    Wairoa

Select any of the Stations below to visit their websites.










Historic Data from Weather Underground
Select the location of interest below. Wairoa is the default. Please have patience, this Data is slow to load in.
Northern Hawkes Bay Historical Data
Daily Summary for November 4, 2017 Units:  Metric    English   Both
« Previous Day
Next Day »
Daily Weekly Monthly Yearly Custom
  High: Low: Average:
Temperature: 25.9 °C 14.7 °C 20.9 °C
Dew Point: 17.5 °C 12.7 °C 15.5 °C
Humidity: 94% 56% 72%
Wind Speed: 33.1km/h 0.0km/h 7.5km/h
Wind Gust: 42.8km/h - -
Wind- - WSW
Pressure: 1013.8 hPa 1009.4 hPa -
Precipitation: 0.0 mm    
Historical Graphs
 
 
Tabular Data for November 4, 2017
Time Temperature Dew Point Pressure Wind Wind Speed Wind Gust Humidity Rainfall Rate (Hourly) solar
00:01 18.9 °C 14.4 °C 1013.8 hPa North 9.7 km/h 30.6 km/h 75% 0.0 mm 0 W/m2
00:06 18.7 °C 14.4 °C 1013.4 hPa North 7.2 km/h 24.5 km/h 76% 0.0 mm 0 W/m2
00:11 18.7 °C 14.4 °C 1013.4 hPa North 12.2 km/h 23.3 km/h 76% 0.0 mm 0 W/m2
00:16 18.6 °C 14.3 °C 1013.8 hPa North 11.1 km/h 17.2 km/h 76% 0.0 mm 0 W/m2
00:21 18.5 °C 14.4 °C 1013.8 hPa North 7.2 km/h 18.3 km/h 77% 0.0 mm 0 W/m2
00:26 18.5 °C 14.4 °C 1013.8 hPa North 7.2 km/h 18.3 km/h 77% 0.0 mm 0 W/m2
00:31 18.5 °C 14.4 °C 1013.8 hPa North 6.1 km/h 18.3 km/h 77% 0.0 mm 0 W/m2
00:36 18.6 °C 14.3 °C 1013.8 hPa North 5.0 km/h 18.3 km/h 76% 0.0 mm 0 W/m2
00:41 18.6 °C 14.3 °C 1013.8 hPa North 8.7 km/h 18.3 km/h 76% 0.0 mm 0 W/m2
00:46 18.5 °C 14.2 °C 1013.8 hPa North 3.5 km/h 14.8 km/h 76% 0.0 mm 0 W/m2
00:51 18.4 °C 14.3 °C 1013.8 hPa North 6.1 km/h 14.8 km/h 77% 0.0 mm 0 W/m2
00:56 18.4 °C 14.3 °C 1013.4 hPa North 2.6 km/h 13.4 km/h 77% 0.0 mm 0 W/m2
01:01 18.3 °C 14.2 °C 1013.4 hPa North 6.1 km/h 18.3 km/h 77% 0.0 mm 0 W/m2
01:06 18.3 °C 14.2 °C 1013.8 hPa North 3.5 km/h 18.3 km/h 77% 0.0 mm 0 W/m2
01:11 18.2 °C 14.1 °C 1013.8 hPa North 2.6 km/h 9.7 km/h 77% 0.0 mm 0 W/m2
01:16 18.1 °C 14.2 °C 1013.4 hPa North 2.6 km/h 9.7 km/h 78% 0.0 mm 0 W/m2
01:21 18.0 °C 14.1 °C 1013.4 hPa NNW 2.6 km/h 6.1 km/h 78% 0.0 mm 0 W/m2
01:26 17.9 °C 14.2 °C 1013.4 hPa North 1.1 km/h 6.1 km/h 79% 0.0 mm 0 W/m2
01:31 17.8 °C 14.1 °C 1013.4 hPa Calm   6.1 km/h 79% 0.0 mm 0 W/m2
01:36 17.7 °C 14.2 °C 1013.4 hPa NNW 1.1 km/h 5.0 km/h 80% 0.0 mm 0 W/m2
01:41 17.7 °C 14.2 °C 1013.8 hPa Calm   5.0 km/h 80% 0.0 mm 0 W/m2
01:46 17.6 °C 14.1 °C 1013.4 hPa Calm   2.6 km/h 80% 0.0 mm 0 W/m2
01:51 17.5 °C 14.0 °C 1013.4 hPa Calm   1.1 km/h 80% 0.0 mm 0 W/m2
01:56 17.4 °C 13.9 °C 1013.4 hPa Calm   1.1 km/h 80% 0.0 mm 0 W/m2
02:01 17.4 °C 14.1 °C 1013.4 hPa Calm   1.1 km/h 81% 0.0 mm 0 W/m2
02:06 17.2 °C 13.9 °C 1013.1 hPa Calm   1.1 km/h 81% 0.0 mm 0 W/m2
02:11 17.2 °C 13.9 °C 1013.1 hPa Calm   1.1 km/h 81% 0.0 mm 0 W/m2
02:16 17.2 °C 13.9 °C 1013.1 hPa Calm   2.6 km/h 81% 0.0 mm 0 W/m2
02:21 17.4 °C 14.3 °C 1013.1 hPa East 3.5 km/h 7.2 km/h 82% 0.0 mm 0 W/m2
02:26 17.7 °C 14.6 °C 1013.1 hPa East 5.0 km/h 8.7 km/h 82% 0.0 mm 0 W/m2
02:31 17.9 °C 14.6 °C 1012.8 hPa ENE 6.1 km/h 11.1 km/h 81% 0.0 mm 0 W/m2
02:36 18.1 °C 14.6 °C 1012.8 hPa ENE 8.7 km/h 17.2 km/h 80% 0.0 mm 0 W/m2
02:41 18.2 °C 14.7 °C 1012.8 hPa ENE 3.5 km/h 17.2 km/h 80% 0.0 mm 0 W/m2
02:46 18.2 °C 14.7 °C 1012.8 hPa ENE 3.5 km/h 11.1 km/h 80% 0.0 mm 0 W/m2
02:51 18.2 °C 14.7 °C 1012.8 hPa ENE 1.1 km/h 11.1 km/h 80% 0.0 mm 0 W/m2
02:56 18.2 °C 14.7 °C 1012.8 hPa ENE 3.5 km/h 8.7 km/h 80% 0.0 mm 0 W/m2
03:01 18.1 °C 14.6 °C 1012.8 hPa ENE 6.1 km/h 12.2 km/h 80% 0.0 mm 0 W/m2
03:16 18.0 °C 14.5 °C 1012.8 hPa ENE 1.1 km/h 11.1 km/h 80% 0.0 mm 0 W/m2
03:21 17.8 °C 14.5 °C 1012.4 hPa ENE 1.1 km/h 7.2 km/h 81% 0.0 mm 0 W/m2
03:26 17.7 °C 14.6 °C 1012.4 hPa ENE 2.6 km/h 5.0 km/h 82% 0.0 mm 0 W/m2
03:31 17.7 °C 14.6 °C 1012.4 hPa East 2.6 km/h 5.0 km/h 82% 0.0 mm 0 W/m2
03:36 17.7 °C 14.6 °C 1012.8 hPa ENE 1.1 km/h 7.2 km/h 82% 0.0 mm 0 W/m2
03:41 17.6 °C 14.5 °C 1012.8 hPa NE 1.1 km/h 7.2 km/h 82% 0.0 mm 0 W/m2
03:46 17.5 °C 14.4 °C 1012.4 hPa ENE 1.1 km/h 5.0 km/h 82% 0.0 mm 0 W/m2
03:51 17.4 °C 14.3 °C 1012.8 hPa Calm   3.5 km/h 82% 0.0 mm 0 W/m2
03:56 17.2 °C 14.1 °C 1012.4 hPa Calm   3.5 km/h 82% 0.0 mm 0 W/m2
04:01 17.0 °C 14.1 °C 1012.4 hPa Calm   1.1 km/h 83% 0.0 mm 0 W/m2
04:06 16.7 °C 14.0 °C 1012.4 hPa Calm   3.5 km/h 84% 0.0 mm 0 W/m2
04:11 16.3 °C 13.6 °C 1012.4 hPa Calm   3.5 km/h 84% 0.0 mm 0 W/m2
04:16 16.0 °C 13.5 °C 1012.4 hPa Calm   3.5 km/h 85% 0.0 mm 0 W/m2
04:21 15.5 °C 13.3 °C 1012.4 hPa Calm   3.5 km/h 87% 0.0 mm 0 W/m2
04:26 15.2 °C 13.4 °C 1012.4 hPa NNW 2.6 km/h 3.5 km/h 89% 0.0 mm 0 W/m2
04:31 15.0 °C 13.4 °C 1012.1 hPa Calm   3.5 km/h 90% 0.0 mm 0 W/m2
04:36 14.9 °C 13.4 °C 1012.1 hPa Calm   5.0 km/h 91% 0.0 mm 0 W/m2
04:41 14.7 °C 13.6 °C 1012.1 hPa North 2.6 km/h 5.0 km/h 93% 0.0 mm 0 W/m2
04:46 14.8 °C 13.8 °C 1012.1 hPa NE 1.1 km/h 5.0 km/h 94% 0.0 mm 0 W/m2
04:51 14.9 °C 13.9 °C 1012.1 hPa Calm   7.2 km/h 94% 0.0 mm 0 W/m2
04:56 15.0 °C 14.1 °C 1012.1 hPa NNW 5.0 km/h 7.2 km/h 94% 0.0 mm 0 W/m2
05:01 15.0 °C 14.1 °C 1012.1 hPa NNW 2.6 km/h 8.7 km/h 94% 0.0 mm 0 W/m2
05:06 15.1 °C 14.2 °C 1012.1 hPa NNW 2.6 km/h 8.7 km/h 94% 0.0 mm 0 W/m2
05:11 15.2 °C 14.2 °C 1012.1 hPa NNW 2.6 km/h 7.2 km/h 94% 0.0 mm 0 W/m2
05:16 15.4 °C 14.4 °C 1011.7 hPa North 1.1 km/h 7.2 km/h 94% 0.0 mm 0 W/m2
05:21 16.7 °C 15.6 °C 1012.1 hPa North 6.1 km/h 20.9 km/h 93% 0.0 mm 0 W/m2
05:26 16.9 °C 15.3 °C 1012.1 hPa NNW 5.0 km/h 20.9 km/h 90% 0.0 mm 0 W/m2
05:31 17.3 °C 15.1 °C 1012.1 hPa NNW 5.0 km/h 11.1 km/h 87% 0.0 mm 0 W/m2
05:36 17.5 °C 14.9 °C 1012.1 hPa NNW 3.5 km/h 11.1 km/h 85% 0.0 mm 0 W/m2
05:41 17.6 °C 14.9 °C 1012.1 hPa North 3.5 km/h 12.2 km/h 84% 0.0 mm 0 W/m2
05:46 17.8 °C 15.1 °C 1012.1 hPa North 3.5 km/h 12.2 km/h 84% 0.0 mm 0 W/m2
05:51 17.8 °C 15.1 °C 1012.1 hPa North 3.5 km/h 9.7 km/h 84% 0.0 mm 0 W/m2
05:56 17.7 °C 15.0 °C 1012.1 hPa North 2.6 km/h 7.2 km/h 84% 0.0 mm 0 W/m2
06:01 17.5 °C 14.8 °C 1012.1 hPa North 2.6 km/h 7.2 km/h 84% 0.0 mm 0 W/m2
06:06 17.5 °C 14.8 °C 1012.1 hPa North 2.6 km/h 6.1 km/h 84% 0.0 mm 0 W/m2
06:11 17.5 °C 14.9 °C 1012.1 hPa NNE 1.1 km/h 7.2 km/h 85% 0.0 mm 2 W/m2
06:16 17.5 °C 14.8 °C 1012.1 hPa Calm   7.2 km/h 84% 0.0 mm 5 W/m2
06:21 17.6 °C 14.9 °C 1012.1 hPa North 2.6 km/h 7.2 km/h 84% 0.0 mm 9 W/m2
06:26 17.7 °C 15.0 °C 1012.4 hPa North 1.1 km/h 6.1 km/h 84% 0.0 mm 13 W/m2
06:31 17.7 °C 15.0 °C 1012.4 hPa North 1.1 km/h 7.2 km/h 84% 0.0 mm 19 W/m2
06:36 17.9 °C 15.2 °C 1012.8 hPa North 2.6 km/h 7.2 km/h 84% 0.0 mm 22 W/m2
06:41 18.0 °C 15.4 °C 1012.8 hPa NNE 2.6 km/h 7.2 km/h 85% 0.0 mm 24 W/m2
06:46 18.1 °C 15.6 °C 1012.8 hPa NNE 1.1 km/h 7.2 km/h 85% 0.0 mm 28 W/m2
06:51 18.2 °C 15.7 °C 1012.8 hPa NNE 2.6 km/h 6.1 km/h 85% 0.0 mm 36 W/m2
06:56 18.3 °C 15.6 °C 1012.8 hPa NNE 1.1 km/h 6.1 km/h 84% 0.0 mm 46 W/m2
07:01 18.5 °C 15.8 °C 1012.8 hPa NNE 1.1 km/h 5.0 km/h 84% 0.0 mm 56 W/m2
07:17 19.1 °C 15.8 °C 1012.4 hPa NE 1.1 km/h 6.1 km/h 81% 0.0 mm 80 W/m2
07:22 19.4 °C 15.9 °C 1012.4 hPa Calm   5.0 km/h 80% 0.0 mm 83 W/m2
07:27 19.7 °C 15.9 °C 1012.8 hPa Calm   5.0 km/h 79% 0.0 mm 86 W/m2
07:32 19.9 °C 15.9 °C 1012.4 hPa NNE 2.6 km/h 5.0 km/h 78% 0.0 mm 93 W/m2
07:49 21.0 °C 16.0 °C 1012.4 hPa NE 2.6 km/h 14.8 km/h 73% 0.0 mm 137 W/m2
07:54 21.4 °C 16.4 °C 1012.4 hPa NNE 2.6 km/h 14.8 km/h 73% 0.0 mm 146 W/m2
07:59 21.7 °C 16.4 °C 1012.4 hPa NE 2.6 km/h 11.1 km/h 72% 0.0 mm 178 W/m2
08:04 21.9 °C 16.4 °C 1012.4 hPa North 3.5 km/h 12.2 km/h 71% 0.0 mm 201 W/m2
08:09 21.9 °C 15.9 °C 1012.4 hPa North 3.5 km/h 23.3 km/h 69% 0.0 mm 182 W/m2
08:14 22.0 °C 16.1 °C 1012.4 hPa NNW 3.5 km/h 23.3 km/h 69% 0.0 mm 231 W/m2
08:19 22.1 °C 16.4 °C 1012.4 hPa North 5.0 km/h 20.9 km/h 70% 0.0 mm 189 W/m2
08:24 22.1 °C 16.6 °C 1012.4 hPa North 6.1 km/h 13.4 km/h 71% 0.0 mm 159 W/m2
08:29 21.9 °C 16.7 °C 1012.4 hPa North 8.7 km/h 19.5 km/h 72% 0.0 mm 258 W/m2
08:34 22.2 °C 16.7 °C 1012.4 hPa North 7.2 km/h 19.5 km/h 71% 0.0 mm 229 W/m2
08:40 22.4 °C 16.9 °C 1012.8 hPa NNE 2.6 km/h 18.3 km/h 71% 0.0 mm 250 W/m2
08:45 22.7 °C 16.7 °C 1012.4 hPa North 17.2 km/h 23.3 km/h 69% 0.0 mm 261 W/m2
08:50 22.6 °C 16.4 °C 1012.4 hPa NW 11.1 km/h 24.5 km/h 68% 0.0 mm 208 W/m2
08:55 22.5 °C 16.1 °C 1012.1 hPa NW 13.4 km/h 29.4 km/h 67% 0.0 mm 203 W/m2
09:00 22.5 °C 16.6 °C 1012.1 hPa NW 11.1 km/h 29.4 km/h 69% 0.0 mm 239 W/m2
09:05 22.8 °C 16.6 °C 1012.1 hPa NNW 14.8 km/h 24.5 km/h 68% 0.0 mm 399 W/m2
09:10 23.0 °C 16.6 °C 1012.1 hPa NNW 12.2 km/h 25.6 km/h 67% 0.0 mm 255 W/m2
09:15 23.0 °C 16.6 °C 1012.1 hPa NNW 15.8 km/h 27.0 km/h 67% 0.0 mm 224 W/m2
09:20 22.9 °C 16.4 °C 1012.1 hPa NNW 12.2 km/h 27.0 km/h 67% 0.0 mm 166 W/m2
09:25 22.7 °C 16.5 °C 1012.1 hPa North 11.1 km/h 21.9 km/h 68% 0.0 mm 173 W/m2
09:30 22.6 °C 16.4 °C 1012.1 hPa North 13.4 km/h 21.9 km/h 68% 0.0 mm 189 W/m2
09:35 22.6 °C 16.4 °C 1012.1 hPa NNE 9.7 km/h 25.6 km/h 68% 0.0 mm 224 W/m2
09:40 22.7 °C 16.5 °C 1012.1 hPa NNE 8.7 km/h 25.6 km/h 68% 0.0 mm 232 W/m2
09:45 22.8 °C 16.8 °C 1012.1 hPa North 12.2 km/h 23.3 km/h 69% 0.0 mm 241 W/m2
09:50 22.9 °C 16.4 °C 1012.1 hPa North 15.8 km/h 27.0 km/h 67% 0.0 mm 191 W/m2
09:55 22.9 °C 16.7 °C 1012.1 hPa North 11.1 km/h 27.0 km/h 68% 0.0 mm 147 W/m2
10:00 22.8 °C 16.4 °C 1012.1 hPa North 11.1 km/h 25.6 km/h 67% 0.0 mm 166 W/m2
10:05 22.8 °C 16.8 °C 1012.1 hPa NNE 9.7 km/h 21.9 km/h 69% 0.0 mm 207 W/m2
10:10 22.8 °C 16.8 °C 1012.1 hPa North 11.1 km/h 19.5 km/h 69% 0.0 mm 208 W/m2
10:15 22.9 °C 16.7 °C 1012.1 hPa NNW 11.1 km/h 21.9 km/h 68% 0.0 mm 182 W/m2
10:20 22.8 °C 16.4 °C 1012.1 hPa NW 8.7 km/h 29.4 km/h 67% 0.0 mm 170 W/m2
10:25 22.8 °C 16.4 °C 1012.1 hPa NNW 12.2 km/h 29.4 km/h 67% 0.0 mm 174 W/m2
10:30 22.8 °C 16.6 °C 1012.1 hPa NNW 11.1 km/h 28.0 km/h 68% 0.0 mm 224 W/m2
10:35 22.8 °C 16.8 °C 1012.1 hPa North 15.8 km/h 21.9 km/h 69% 0.0 mm 239 W/m2
10:40 22.9 °C 16.7 °C 1012.1 hPa North 11.1 km/h 25.6 km/h 68% 0.0 mm 243 W/m2
10:45 22.9 °C 16.7 °C 1012.1 hPa NNW 13.4 km/h 29.4 km/h 68% 0.0 mm 272 W/m2
10:50 22.9 °C 16.7 °C 1011.7 hPa NNW 14.8 km/h 29.4 km/h 68% 0.0 mm 247 W/m2
10:55 22.8 °C 16.8 °C 1012.1 hPa NNE 11.1 km/h 29.4 km/h 69% 0.0 mm 239 W/m2
11:00 22.9 °C 16.9 °C 1011.7 hPa NNE 6.1 km/h 29.4 km/h 69% 0.0 mm 248 W/m2
11:05 22.9 °C 16.7 °C 1011.7 hPa North 8.7 km/h 29.4 km/h 68% 0.0 mm 255 W/m2
11:10 22.9 °C 16.9 °C 1012.1 hPa North 15.8 km/h 25.6 km/h 69% 0.0 mm 253 W/m2
11:15 23.0 °C 17.0 °C 1012.1 hPa North 11.1 km/h 25.6 km/h 69% 0.0 mm 270 W/m2
11:16 23.1 °C 17.1 °C 1012.1 hPa North 7.2 km/h 25.6 km/h 69% 0.0 mm 238 W/m2
11:21 23.0 °C 17.0 °C 1011.7 hPa North 3.5 km/h 19.5 km/h 69% 0.0 mm 232 W/m2
11:26 23.1 °C 17.1 °C 1011.7 hPa North 7.2 km/h 20.9 km/h 69% 0.0 mm 256 W/m2
11:31 23.1 °C 17.1 °C 1012.1 hPa North 8.7 km/h 20.9 km/h 69% 0.0 mm 233 W/m2
11:36 23.1 °C 16.9 °C 1011.7 hPa NNW 6.1 km/h 19.5 km/h 68% 0.0 mm 238 W/m2
11:41 23.0 °C 17.0 °C 1012.1 hPa NNW 8.7 km/h 19.5 km/h 69% 0.0 mm 233 W/m2
11:46 23.0 °C 17.0 °C 1012.1 hPa NNW 17.2 km/h 24.5 km/h 69% 0.0 mm 239 W/m2
11:51 22.9 °C 16.9 °C 1011.7 hPa North 3.5 km/h 24.5 km/h 69% 0.0 mm 244 W/m2
11:56 23.1 °C 17.1 °C 1011.7 hPa North 12.2 km/h 24.5 km/h 69% 0.0 mm 219 W/m2
12:01 22.9 °C 16.7 °C 1011.7 hPa North 11.1 km/h 31.7 km/h 68% 0.0 mm 201 W/m2
12:06 23.0 °C 16.8 °C 1011.7 hPa NNW 12.2 km/h 31.7 km/h 68% 0.0 mm 206 W/m2
12:11 23.0 °C 16.6 °C 1011.7 hPa NNW 13.4 km/h 28.0 km/h 67% 0.0 mm 182 W/m2
12:16 23.1 °C 16.7 °C 1011.7 hPa NNW 12.2 km/h 28.0 km/h 67% 0.0 mm 157 W/m2
12:33 23.3 °C 16.6 °C 1011.4 hPa NNW 12.2 km/h 23.3 km/h 66% 0.0 mm 194 W/m2
12:38 23.1 °C 16.7 °C 1011.4 hPa North 20.9 km/h 27.0 km/h 67% 0.0 mm 164 W/m2
12:44 23.0 °C 16.1 °C 1011.1 hPa North 12.2 km/h 34.3 km/h 65% 0.0 mm 173 W/m2
12:49 23.1 °C 16.4 °C 1011.4 hPa NNW 12.2 km/h 34.3 km/h 66% 0.0 mm 183 W/m2
12:54 23.1 °C 16.2 °C 1011.1 hPa North 13.4 km/h 30.6 km/h 65% 0.0 mm 209 W/m2
12:59 23.1 °C 16.2 °C 1011.4 hPa North 7.2 km/h 30.6 km/h 65% 0.0 mm 227 W/m2
13:04 23.2 °C 16.3 °C 1011.4 hPa North 18.3 km/h 34.3 km/h 65% 0.0 mm 253 W/m2
13:09 23.3 °C 16.4 °C 1011.1 hPa North 15.8 km/h 34.3 km/h 65% 0.0 mm 279 W/m2
13:14 23.4 °C 16.4 °C 1011.4 hPa NNW 19.5 km/h 29.4 km/h 65% 0.0 mm 333 W/m2
13:19 23.5 °C 16.6 °C 1011.4 hPa NNW 23.3 km/h 30.6 km/h 65% 0.0 mm 354 W/m2
13:24 23.6 °C 16.7 °C 1011.4 hPa NNW 13.4 km/h 33.1 km/h 65% 0.0 mm 361 W/m2
13:29 23.9 °C 16.9 °C 1011.1 hPa NW 18.3 km/h 33.1 km/h 65% 0.0 mm 327 W/m2
13:34 24.0 °C 16.3 °C 1011.1 hPa NNW 19.5 km/h 33.1 km/h 62% 0.0 mm 354 W/m2
13:39 24.1 °C 16.6 °C 1011.1 hPa NNW 18.3 km/h 33.1 km/h 63% 0.0 mm 326 W/m2
13:44 24.3 °C 17.1 °C 1011.4 hPa North 6.1 km/h 33.1 km/h 64% 0.0 mm 322 W/m2
13:49 24.5 °C 17.5 °C 1011.1 hPa North 5.0 km/h 21.9 km/h 65% 0.0 mm 312 W/m2
13:54 24.5 °C 17.0 °C 1011.1 hPa North 7.2 km/h 23.3 km/h 63% 0.0 mm 316 W/m2
13:59 24.4 °C 16.9 °C 1011.1 hPa NNW 17.2 km/h 29.4 km/h 63% 0.0 mm 316 W/m2
14:04 24.3 °C 16.3 °C 1011.1 hPa NNW 13.4 km/h 29.4 km/h 61% 0.0 mm 338 W/m2
14:09 24.5 °C 16.8 °C 1011.4 hPa NNW 17.2 km/h 28.0 km/h 62% 0.0 mm 350 W/m2
14:14 24.5 °C 16.8 °C 1011.1 hPa NNW 14.8 km/h 25.6 km/h 62% 0.0 mm 308 W/m2
14:19 24.3 °C 16.3 °C 1011.1 hPa NNW 23.3 km/h 35.6 km/h 61% 0.0 mm 272 W/m2
14:24 24.2 °C 16.2 °C 1011.1 hPa NW 27.0 km/h 42.8 km/h 61% 0.0 mm 273 W/m2
14:29 24.2 °C 16.5 °C 1010.7 hPa NW 24.5 km/h 42.8 km/h 62% 0.0 mm 280 W/m2
14:34 24.2 °C 16.5 °C 1011.1 hPa NW 14.8 km/h 31.7 km/h 62% 0.0 mm 291 W/m2
14:39 24.3 °C 16.8 °C 1010.7 hPa NW 9.7 km/h 31.7 km/h 63% 0.0 mm 335 W/m2
14:44 24.5 °C 16.8 °C 1010.7 hPa NW 20.9 km/h 31.7 km/h 62% 0.0 mm 391 W/m2
14:49 24.5 °C 16.5 °C 1010.7 hPa NNW 13.4 km/h 30.6 km/h 61% 0.0 mm 391 W/m2
14:54 24.8 °C 16.8 °C 1010.7 hPa NNW 20.9 km/h 30.6 km/h 61% 0.0 mm 389 W/m2
14:59 24.8 °C 16.8 °C 1010.7 hPa NW 12.2 km/h 30.6 km/h 61% 0.0 mm 378 W/m2
15:04 25.2 °C 16.7 °C 1010.7 hPa NW 17.2 km/h 30.6 km/h 59% 0.0 mm 387 W/m2
15:09 25.2 °C 16.7 °C 1010.4 hPa NNW 12.2 km/h 29.4 km/h 59% 0.0 mm 290 W/m2
15:14 24.9 °C 16.9 °C 1010.4 hPa NW 13.4 km/h 24.5 km/h 61% 0.0 mm 376 W/m2
15:19 25.2 °C 16.7 °C 1010.0 hPa NW 18.3 km/h 30.6 km/h 59% 0.0 mm 478 W/m2
15:24 25.5 °C 17.2 °C 1010.0 hPa NW 18.3 km/h 30.6 km/h 60% 0.0 mm 444 W/m2
15:29 25.9 °C 16.8 °C 1010.0 hPa NNW 20.9 km/h 34.3 km/h 57% 0.0 mm 491 W/m2
15:34 25.5 °C 16.1 °C 1010.0 hPa NNW 18.3 km/h 34.3 km/h 56% 0.0 mm 479 W/m2
15:39 25.5 °C 16.1 °C 1010.0 hPa NW 17.2 km/h 34.3 km/h 56% 0.0 mm 253 W/m2
15:44 24.9 °C 15.8 °C 1010.0 hPa NNW 33.1 km/h 41.7 km/h 57% 0.0 mm 327 W/m2
15:49 25.0 °C 15.9 °C 1010.0 hPa NNW 27.0 km/h 41.7 km/h 57% 0.0 mm 232 W/m2
15:54 24.5 °C 15.7 °C 1010.0 hPa NW 14.8 km/h 37.8 km/h 58% 0.0 mm 342 W/m2
15:59 25.1 °C 16.3 °C 1010.0 hPa NW 9.7 km/h 37.8 km/h 58% 0.0 mm 340 W/m2
16:04 25.9 °C 16.8 °C 1010.0 hPa NW 20.9 km/h 37.8 km/h 57% 0.0 mm 439 W/m2
16:09 25.7 °C 16.3 °C 1010.0 hPa NNW 19.5 km/h 39.3 km/h 56% 0.0 mm 465 W/m2
16:16 25.4 °C 16.0 °C 1009.7 hPa NNW 21.9 km/h 39.3 km/h 56% 0.0 mm 179 W/m2
16:23 25.6 °C 16.4 °C 1009.7 hPa NNW 24.5 km/h 39.3 km/h 57% 0.0 mm 520 W/m2
16:28 25.6 °C 16.4 °C 1009.7 hPa NW 14.8 km/h 34.3 km/h 57% 0.0 mm 261 W/m2
16:30 25.4 °C 16.3 °C 1009.7 hPa NNW 14.8 km/h 34.3 km/h 57% 0.0 mm 229 W/m2
16:34 25.0 °C 16.2 °C 1009.7 hPa NNW 8.7 km/h 30.6 km/h 58% 0.0 mm 295 W/m2
16:39 25.2 °C 16.1 °C 1009.7 hPa NNW 15.8 km/h 30.6 km/h 57% 0.0 mm 388 W/m2
16:44 25.1 °C 16.0 °C 1009.7 hPa NW 14.8 km/h 29.4 km/h 57% 0.0 mm 390 W/m2
17:02 25.9 °C 16.8 °C 1009.7 hPa NNW 18.3 km/h 25.6 km/h 57% 0.0 mm 274 W/m2
17:07 25.3 °C 16.2 °C 1009.7 hPa NW 21.9 km/h 35.6 km/h 57% 0.0 mm 209 W/m2
17:12 25.0 °C 16.2 °C 1009.7 hPa NW 11.1 km/h 35.6 km/h 58% 0.0 mm 392 W/m2
17:17 25.0 °C 16.2 °C 1009.7 hPa NNW 15.8 km/h 33.1 km/h 58% 0.0 mm 165 W/m2
17:22 25.2 °C 16.7 °C 1009.4 hPa NW 18.3 km/h 27.0 km/h 59% 0.0 mm 383 W/m2
17:27 25.3 °C 16.2 °C 1009.7 hPa NW 12.2 km/h 33.1 km/h 57% 0.0 mm 203 W/m2
17:32 24.6 °C 16.1 °C 1009.7 hPa WNW 18.3 km/h 34.3 km/h 59% 0.0 mm 153 W/m2
17:37 24.1 °C 16.1 °C 1009.7 hPa NW 17.2 km/h 34.3 km/h 61% 0.0 mm 140 W/m2
17:42 23.9 °C 16.2 °C 1009.7 hPa NW 15.8 km/h 31.7 km/h 62% 0.0 mm 131 W/m2
17:47 23.7 °C 16.0 °C 1009.7 hPa NW 18.3 km/h 30.6 km/h 62% 0.0 mm 115 W/m2
17:52 23.5 °C 16.1 °C 1009.7 hPa NNW 11.1 km/h 29.4 km/h 63% 0.0 mm 120 W/m2
17:57 23.5 °C 16.1 °C 1009.4 hPa NNW 12.2 km/h 27.0 km/h 63% 0.0 mm 132 W/m2
18:02 23.5 °C 16.1 °C 1009.7 hPa NW 11.1 km/h 25.6 km/h 63% 0.0 mm 146 W/m2
18:07 23.5 °C 16.3 °C 1009.7 hPa NW 11.1 km/h 25.6 km/h 64% 0.0 mm 126 W/m2
18:12 23.5 °C 16.1 °C 1009.4 hPa NW 6.1 km/h 27.0 km/h 63% 0.0 mm 128 W/m2
18:17 23.5 °C 16.3 °C 1009.4 hPa NNW 12.2 km/h 27.0 km/h 64% 0.0 mm 121 W/m2
18:22 23.5 °C 16.6 °C 1009.4 hPa NNW 15.8 km/h 25.6 km/h 65% 0.0 mm 130 W/m2
18:27 23.3 °C 16.4 °C 1009.7 hPa NNW 7.2 km/h 28.0 km/h 65% 0.0 mm 95 W/m2
18:32 23.3 °C 16.6 °C 1009.7 hPa NNW 9.7 km/h 28.0 km/h 66% 0.0 mm 169 W/m2
18:37 23.4 °C 16.4 °C 1009.7 hPa NW 5.0 km/h 24.5 km/h 65% 0.0 mm 116 W/m2
18:42 23.4 °C 16.4 °C 1009.7 hPa NNW 17.2 km/h 27.0 km/h 65% 0.0 mm 95 W/m2
18:47 23.3 °C 16.4 °C 1009.7 hPa NNW 9.7 km/h 27.0 km/h 65% 0.0 mm 77 W/m2
18:52 23.1 °C 16.4 °C 1009.7 hPa NNW 11.1 km/h 27.0 km/h 66% 0.0 mm 70 W/m2
18:57 23.0 °C 16.6 °C 1009.7 hPa NNW 6.1 km/h 23.3 km/h 67% 0.0 mm 59 W/m2
19:02 22.9 °C 16.2 °C 1009.7 hPa NNW 6.1 km/h 17.2 km/h 66% 0.0 mm 52 W/m2
19:07 22.8 °C 16.4 °C 1009.7 hPa NNW 6.1 km/h 15.8 km/h 67% 0.0 mm 46 W/m2
19:12 22.7 °C 16.3 °C 1009.7 hPa NNW 7.2 km/h 15.8 km/h 67% 0.0 mm 44 W/m2
19:17 22.4 °C 16.0 °C 1009.7 hPa NNW 2.6 km/h 15.8 km/h 67% 0.0 mm 31 W/m2
19:22 22.3 °C 16.1 °C 1010.0 hPa NNW 6.1 km/h 14.8 km/h 68% 0.0 mm 24 W/m2
19:27 22.2 °C 16.1 °C 1010.0 hPa NNW 6.1 km/h 15.8 km/h 68% 0.0 mm 19 W/m2
19:32 22.1 °C 15.7 °C 1010.0 hPa NW 6.1 km/h 15.8 km/h 67% 0.0 mm 15 W/m2
19:37 21.9 °C 15.7 °C 1010.0 hPa NW 1.1 km/h 18.3 km/h 68% 0.0 mm 7 W/m2
19:42 21.8 °C 15.7 °C 1010.0 hPa NW 6.1 km/h 18.3 km/h 68% 0.0 mm 1 W/m2
19:47 21.9 °C 15.5 °C 1010.0 hPa NW 6.1 km/h 18.3 km/h 67% 0.0 mm 0 W/m2
19:52 21.9 °C 15.3 °C 1010.0 hPa NW 6.1 km/h 18.3 km/h 66% 0.0 mm 0 W/m2
19:57 21.9 °C 15.1 °C 1010.0 hPa NNW 8.7 km/h 17.2 km/h 65% 0.0 mm 0 W/m2
20:02 21.9 °C 15.1 °C 1010.0 hPa NNW 11.1 km/h 19.5 km/h 65% 0.0 mm 0 W/m2
20:07 21.9 °C 15.1 °C 1010.0 hPa NW 6.1 km/h 19.5 km/h 65% 0.0 mm 0 W/m2
20:12 21.8 °C 15.2 °C 1010.0 hPa NNW 7.2 km/h 19.5 km/h 66% 0.0 mm 0 W/m2
20:17 21.7 °C 15.1 °C 1010.4 hPa North 7.2 km/h 17.2 km/h 66% 0.0 mm 0 W/m2
20:22 21.6 °C 15.0 °C 1010.0 hPa North 1.1 km/h 17.2 km/h 66% 0.0 mm 0 W/m2
20:27 21.3 °C 15.4 °C 1010.0 hPa NNW 2.6 km/h 13.4 km/h 69% 0.0 mm 0 W/m2
20:32 21.1 °C 15.7 °C 1010.4 hPa North 5.0 km/h 12.2 km/h 71% 0.0 mm 0 W/m2
20:37 21.0 °C 15.3 °C 1010.4 hPa NNW 2.6 km/h 12.2 km/h 70% 0.0 mm 0 W/m2
20:42 21.0 °C 15.3 °C 1010.4 hPa NNW 5.0 km/h 12.2 km/h 70% 0.0 mm 0 W/m2
20:47 21.0 °C 15.3 °C 1010.0 hPa NNW 3.5 km/h 11.1 km/h 70% 0.0 mm 0 W/m2
20:52 21.0 °C 15.3 °C 1010.4 hPa NNW 2.6 km/h 12.2 km/h 70% 0.0 mm 0 W/m2
20:57 20.9 °C 15.4 °C 1010.4 hPa NNW 3.5 km/h 12.2 km/h 71% 0.0 mm 0 W/m2
21:02 20.8 °C 15.6 °C 1010.4 hPa North 1.1 km/h 11.1 km/h 72% 0.0 mm 0 W/m2
21:07 20.7 °C 15.5 °C 1010.4 hPa NNE 3.5 km/h 12.2 km/h 72% 0.0 mm 0 W/m2
21:12 20.7 °C 15.5 °C 1010.7 hPa Calm   12.2 km/h 72% 0.0 mm 0 W/m2
21:17 20.6 °C 15.6 °C 1010.4 hPa NNE 2.6 km/h 9.7 km/h 73% 0.0 mm 0 W/m2
21:22 20.4 °C 15.4 °C 1010.7 hPa North 1.1 km/h 7.2 km/h 73% 0.0 mm 0 W/m2
21:27 20.4 °C 15.4 °C 1010.7 hPa North 1.1 km/h 7.2 km/h 73% 0.0 mm 0 W/m2
21:32 20.3 °C 15.5 °C 1010.7 hPa Calm   7.2 km/h 74% 0.0 mm 0 W/m2
21:37 20.2 °C 15.4 °C 1010.7 hPa Calm   7.2 km/h 74% 0.0 mm 0 W/m2
21:42 20.1 °C 15.3 °C 1010.7 hPa Calm   7.2 km/h 74% 0.0 mm 0 W/m2
21:47 20.0 °C 15.4 °C 1010.7 hPa Calm   3.5 km/h 75% 0.0 mm 0 W/m2
21:52 19.8 °C 15.4 °C 1010.7 hPa Calm   3.5 km/h 76% 0.0 mm 0 W/m2
21:57 19.7 °C 15.4 °C 1010.7 hPa Calm   2.6 km/h 76% 0.0 mm 0 W/m2
22:02 19.7 °C 15.4 °C 1010.7 hPa Calm   2.6 km/h 76% 0.0 mm 0 W/m2
22:07 19.7 °C 15.4 °C 1010.7 hPa Calm   2.6 km/h 76% 0.0 mm 0 W/m2
22:12 19.5 °C 15.2 °C 1010.7 hPa NW 2.6 km/h 5.0 km/h 76% 0.0 mm 0 W/m2
22:17 19.5 °C 15.2 °C 1010.7 hPa Calm   5.0 km/h 76% 0.0 mm 0 W/m2
22:22 19.3 °C 14.8 °C 1010.7 hPa Calm   5.0 km/h 75% 0.0 mm 0 W/m2
22:27 19.2 °C 14.7 °C 1010.7 hPa Calm   3.5 km/h 75% 0.0 mm 0 W/m2
22:32 19.1 °C 14.6 °C 1010.7 hPa Calm   2.6 km/h 75% 0.0 mm 0 W/m2
22:37 18.8 °C 14.5 °C 1010.7 hPa Calm     76% 0.0 mm 0 W/m2
22:42 18.6 °C 14.3 °C 1010.7 hPa Calm     76% 0.0 mm 0 W/m2
22:47 18.5 °C 14.2 °C 1010.7 hPa Calm     76% 0.0 mm 0 W/m2
22:52 18.2 °C 13.9 °C 1010.7 hPa Calm     76% 0.0 mm 0 W/m2
22:57 18.1 °C 13.8 °C 1010.7 hPa NNW 1.1 km/h 13.4 km/h 76% 0.0 mm 0 W/m2
23:02 18.2 °C 13.9 °C 1010.7 hPa Calm   13.4 km/h 76% 0.0 mm 0 W/m2
23:07 18.2 °C 13.7 °C 1010.7 hPa NW 1.1 km/h 3.5 km/h 75% 0.0 mm 0 W/m2
23:12 18.2 °C 13.5 °C 1010.7 hPa Calm   3.5 km/h 74% 0.0 mm 0 W/m2
23:17 18.1 °C 13.2 °C 1010.7 hPa Calm   3.5 km/h 73% 0.0 mm 0 W/m2
23:22 18.0 °C 13.3 °C 1010.7 hPa Calm     74% 0.0 mm 0 W/m2
23:27 17.8 °C 13.1 °C 1010.7 hPa Calm     74% 0.0 mm 0 W/m2
23:32 17.6 °C 12.9 °C 1010.7 hPa Calm     74% 0.0 mm 0 W/m2
23:37 17.5 °C 13.2 °C 1010.7 hPa Calm     76% 0.0 mm 0 W/m2
23:42 17.3 °C 13.1 °C 1011.1 hPa Calm     76% 0.0 mm 0 W/m2
23:47 17.0 °C 12.7 °C 1011.1 hPa Calm     76% 0.0 mm 0 W/m2
23:52 16.8 °C 12.9 °C 1010.7 hPa Calm   1.1 km/h 78% 0.0 mm 0 W/m2
23:57 17.0 °C 12.9 °C 1010.7 hPa Calm   7.2 km/h 77% 0.0 mm 0 W/m2
Northern Hawkes Bay. New Zealand Historic Data
Compliments of Weather Underground - 2.25 mb